Time;durP1;ratioP1;P1;durP2;ratioP2;P2;SDS_P1;SDS_P2;PMS_P1;PMS_P2;Temp;Humidity;BMP_temperature;BMP_pressure;BME280_temperature;BME280_humidity;BME280_pressure;Samples;Min_cycle;Max_cycle;Signal;HPM_P1;HPM_P2
2022/03/23 08:31:26;;;;;;;20.67;9.23;;;;;;;5.32;69.41;100431.63;5130047;27;20394;-80
2022/03/23 08:33:53;;;;;;;17.98;9.93;;;;;;;5.56;71.71;100444.19;5129566;27;20344;-80
2022/03/23 08:36:19;;;;;;;15.88;9.07;;;;;;;5.72;68.62;100429.47;5129274;27;20444;-80
2022/03/23 08:38:45;;;;;;;17.17;9.20;;;;;;;5.84;68.08;100436.56;5139654;27;20047;-80
2022/03/23 08:41:13;;;;;;;16.77;10.10;;;;;;;5.92;67.94;100439.53;5130870;28;20394;-80
2022/03/23 08:43:41;;;;;;;16.88;9.43;;;;;;;6.08;67.53;100438.31;5130330;27;20047;-80
2022/03/23 08:46:07;;;;;;;19.50;10.45;;;;;;;6.24;67.95;100429.84;5130308;27;20138;-80
2022/03/23 08:48:36;;;;;;;17.67;9.10;;;;;;;6.45;67.44;100428.03;5130275;27;20051;-80
2022/03/23 08:51:03;;;;;;;20.55;10.50;;;;;;;6.54;67.41;100427.28;5130501;27;20050;-80
2022/03/23 08:53:29;;;;;;;20.92;10.57;;;;;;;6.69;67.46;100427.00;5145903;27;20047;-80
2022/03/23 08:55:57;;;;;;;24.00;10.65;;;;;;;6.87;68.35;100425.44;5130449;27;20680;-80
2022/03/23 08:58:24;;;;;;;20.48;10.32;;;;;;;7.02;67.10;100422.41;5130391;28;20056;-79
2022/03/23 09:00:50;;;;;;;17.85;10.75;;;;;;;7.16;67.91;100424.78;5130284;27;20044;-79
2022/03/23 09:03:17;;;;;;;22.08;10.07;;;;;;;7.21;65.75;100421.69;5128010;27;20062;-79
2022/03/23 09:05:45;;;;;;;18.65;10.75;;;;;;;7.28;65.05;100422.03;5123216;27;20055;-79
2022/03/23 09:08:11;;;;;;;28.50;11.57;;;;;;;7.31;64.98;100403.66;5121147;27;20047;-80
2022/03/23 09:10:38;;;;;;;23.27;10.85;;;;;;;7.69;64.33;100420.22;5128307;28;20070;-79
2022/03/23 09:13:05;;;;;;;22.60;11.73;;;;;;;7.77;63.45;100413.16;5127963;27;20062;-80
2022/03/23 09:15:31;;;;;;;22.85;10.90;;;;;;;7.78;62.94;100414.88;5129998;27;20047;-79
2022/03/23 09:17:59;;;;;;;20.40;11.68;;;;;;;7.77;63.43;100415.03;5129733;27;20051;-80
2022/03/23 09:20:28;;;;;;;18.58;10.82;;;;;;;7.86;65.13;100410.59;5120022;27;20075;-79
2022/03/23 09:22:56;;;;;;;25.48;12.13;;;;;;;8.11;62.10;100411.97;5113593;28;20039;-79
2022/03/23 09:25:23;;;;;;;18.92;11.73;;;;;;;8.23;61.70;100412.72;5108617;28;20048;-80
2022/03/23 09:27:50;;;;;;;25.77;12.30;;;;;;;8.29;61.99;100409.47;5106544;28;20078;-80
2022/03/23 09:30:18;;;;;;;20.27;11.32;;;;;;;8.37;62.19;100404.22;5109075;28;20044;-80
2022/03/23 09:32:46;;;;;;;19.98;11.27;;;;;;;8.42;61.07;100406.50;5089154;28;20131;-80
2022/03/23 09:35:14;;;;;;;28.85;11.93;;;;;;;8.52;59.93;100417.38;5089049;28;20048;-80
2022/03/23 09:37:50;;;;;;;22.17;11.73;;;;;;;8.53;59.62;100403.66;5105390;28;20059;-79
2022/03/23 09:40:23;;;;;;;20.15;11.13;;;;;;;8.63;57.80;100409.97;5109405;28;20058;-80
2022/03/23 09:42:49;;;;;;;23.55;11.55;;;;;;;8.76;57.78;100408.81;5091385;28;20063;-79
2022/03/23 09:45:28;;;;;;;19.77;11.60;;;;;;;8.81;57.38;100404.69;5094971;28;20078;-80
2022/03/23 09:47:55;;;;;;;24.40;12.30;;;;;;;8.91;55.95;100399.25;5094521;28;20055;-80
2022/03/23 09:50:21;;;;;;;21.58;12.07;;;;;;;8.97;58.07;100405.94;5095409;28;20043;-80
2022/03/23 09:52:48;;;;;;;21.60;11.75;;;;;;;9.09;56.68;100396.66;5081707;28;20071;-80
2022/03/23 09:55:14;;;;;;;26.42;12.75;;;;;;;9.42;56.56;100390.88;5075263;28;20060;-80
2022/03/23 09:57:42;;;;;;;21.13;11.93;;;;;;;9.45;55.08;100394.16;5090708;28;20059;-80
2022/03/23 10:00:13;;;;;;;22.17;12.15;;;;;;;9.55;55.63;100396.84;5095673;28;20048;-80
2022/03/23 10:03:24;;;;;;;19.17;11.68;;;;;;;9.68;53.96;100389.22;5077160;28;20384;-80
2022/03/23 10:06:04;;;;;;;24.60;12.32;;;;;;;9.84;52.89;100383.13;5075951;28;20048;-80
2022/03/23 10:09:08;;;;;;;19.58;11.35;;;;;;;9.98;52.87;100379.09;5075702;28;20040;-80
2022/03/23 10:12:08;;;;;;;26.05;13.13;;;;;;;10.04;50.54;100388.47;5075569;28;20048;-80
2022/03/23 10:15:11;;;;;;;28.35;11.73;;;;;;;10.17;49.88;100388.13;5075628;28;20052;-80
2022/03/23 10:17:58;;;;;;;24.65;12.75;;;;;;;10.39;49.14;100370.56;5075406;28;20049;-81
2022/03/23 10:20:24;;;;;;;22.30;12.00;;;;;;;10.50;49.13;100369.47;5095467;28;20048;-80
2022/03/23 10:22:54;;;;;;;20.50;11.98;;;;;;;10.49;48.93;100368.59;5084870;28;20403;-80
2022/03/23 10:25:26;;;;;;;22.98;11.32;;;;;;;10.62;47.97;100368.22;5091253;28;20048;-79
2022/03/23 10:27:53;;;;;;;20.85;11.43;;;;;;;10.60;46.80;100367.53;5094771;28;20056;-80
2022/03/23 10:30:19;;;;;;;26.48;11.00;;;;;;;10.78;46.92;100365.66;5092393;28;20048;-81
2022/03/23 10:32:46;;;;;;;22.65;11.60;;;;;;;10.92;45.96;100363.38;5104658;28;20055;-79
2022/03/23 10:35:16;;;;;;;17.98;10.80;;;;;;;11.01;44.90;100362.44;5112290;28;20133;-81
2022/03/23 10:37:44;;;;;;;17.80;11.35;;;;;;;11.30;44.77;100364.84;5097553;28;20044;-80
2022/03/23 10:40:14;;;;;;;22.73;11.32;;;;;;;11.35;43.58;100356.22;5100579;28;20040;-81
2022/03/23 10:42:43;;;;;;;21.70;11.25;;;;;;;11.34;43.00;100363.50;5085616;28;20060;-80
2022/03/23 10:45:12;;;;;;;21.45;11.45;;;;;;;11.50;43.52;100351.00;5075296;28;20045;-80
2022/03/23 10:47:41;;;;;;;20.73;11.13;;;;;;;11.54;43.00;100352.38;5082759;28;20059;-80
2022/03/23 10:50:16;;;;;;;19.40;9.90;;;;;;;11.57;43.61;100352.06;5094780;28;20044;-80
2022/03/23 10:52:54;;;;;;;22.90;10.48;;;;;;;11.57;41.21;100346.63;5094636;28;20060;-79
2022/03/23 10:55:21;;;;;;;21.77;10.55;;;;;;;11.61;41.69;100333.53;5111845;28;20044;-81
2022/03/23 10:58:22;;;;;;;24.63;9.65;;;;;;;11.81;41.48;100342.31;5081315;28;20400;-80
2022/03/23 11:00:49;;;;;;;18.92;10.70;;;;;;;11.84;41.43;100333.81;5074417;28;20048;-81
2022/03/23 11:03:16;;;;;;;16.20;10.02;;;;;;;12.16;40.87;100337.66;5090328;28;20048;-80
2022/03/23 11:05:46;;;;;;;18.55;9.93;;;;;;;12.29;41.48;100335.31;5107627;28;20048;-80
2022/03/23 11:08:14;;;;;;;17.27;9.93;;;;;;;12.42;40.25;100329.38;5091472;28;20053;-80
2022/03/23 11:16:14;;;;;;;14.60;9.60;;;;;;;12.87;38.25;100319.84;5074195;28;20060;-80
2022/03/23 11:18:40;;;;;;;14.13;8.43;;;;;;;12.94;36.16;100311.81;5092647;28;20048;-80
2022/03/23 11:21:08;;;;;;;18.13;10.48;;;;;;;12.99;37.60;100311.28;5110552;28;20051;-80
2022/03/23 11:23:37;;;;;;;25.35;9.95;;;;;;;13.08;36.42;100302.06;5092399;28;20048;-79
2022/03/23 11:26:05;;;;;;;15.32;8.98;;;;;;;13.23;36.91;100300.34;5091102;28;20050;-80
2022/03/23 11:28:34;;;;;;;16.08;9.23;;;;;;;13.49;35.34;100301.13;5086745;28;20050;-80
2022/03/23 11:31:03;;;;;;;14.23;8.20;;;;;;;13.67;35.84;100314.56;5073001;28;20449;-80
2022/03/23 11:33:32;;;;;;;14.37;8.63;;;;;;;13.88;36.00;100301.16;5081071;28;20052;-80
2022/03/23 11:35:59;;;;;;;16.35;9.10;;;;;;;13.83;35.03;100267.19;5112666;28;20135;-80
2022/03/23 11:38:28;;;;;;;17.05;10.00;;;;;;;13.99;35.02;100283.50;5098097;28;20052;-81
2022/03/23 11:40:56;;;;;;;18.95;9.65;;;;;;;14.10;34.68;100291.25;5093126;28;20048;-80
2022/03/23 11:43:24;;;;;;;14.23;8.57;;;;;;;14.19;34.05;100274.81;5090358;28;20052;-80
2022/03/23 11:45:53;;;;;;;16.55;9.65;;;;;;;14.28;32.94;100282.78;5093179;28;20044;-80
2022/03/23 11:48:30;;;;;;;14.85;8.77;;;;;;;14.31;33.77;100270.63;5080334;28;20056;-80
2022/03/23 11:51:20;;;;;;;15.50;9.50;;;;;;;14.53;34.24;100279.88;5078780;28;20048;-80
2022/03/23 11:54:01;;;;;;;19.52;10.43;;;;;;;14.74;33.97;100276.47;5092343;28;20052;-80
2022/03/23 11:56:35;;;;;;;15.77;10.15;;;;;;;14.93;32.91;100271.50;5086928;28;20044;-80
2022/03/23 11:59:18;;;;;;;16.90;8.73;;;;;;;15.12;34.26;100251.78;5093175;28;20075;-80
2022/03/23 12:01:44;;;;;;;17.30;9.32;;;;;;;15.26;32.11;100261.03;5077562;28;20051;-80
2022/03/23 12:04:16;;;;;;;18.10;10.02;;;;;;;15.26;32.52;100246.50;5071968;28;20123;-80
2022/03/23 12:06:44;;;;;;;17.65;8.00;;;;;;;15.50;32.37;100267.28;5073231;28;20044;-80
2022/03/23 12:09:30;;;;;;;16.00;9.02;;;;;;;15.58;30.99;100257.06;5072601;28;20167;-80
2022/03/23 12:11:58;;;;;;;21.13;9.55;;;;;;;15.75;31.54;100243.97;5088257;28;20048;-80
2022/03/23 12:14:29;;;;;;;15.15;9.32;;;;;;;15.90;31.99;100241.25;5089251;28;20048;-80
2022/03/23 12:17:05;;;;;;;15.73;9.43;;;;;;;16.08;31.25;100249.03;5092702;28;20059;-80
2022/03/23 12:19:33;;;;;;;19.25;9.68;;;;;;;16.17;30.10;100244.28;5093061;28;20049;-80
2022/03/23 12:22:15;;;;;;;18.85;9.55;;;;;;;16.33;32.29;100242.31;5092425;28;20052;-80
2022/03/23 12:24:57;;;;;;;16.33;9.10;;;;;;;16.16;29.99;100222.53;5082723;28;20087;-80
2022/03/23 12:27:32;;;;;;;18.38;8.93;;;;;;;16.22;28.30;100228.06;5072984;28;20427;-80
2022/03/23 12:30:00;;;;;;;14.63;7.68;;;;;;;16.24;27.71;100234.22;5085792;28;20050;-80
2022/03/23 12:32:37;;;;;;;18.27;8.90;;;;;;;16.45;27.05;100227.88;5092160;28;20411;-80
2022/03/23 12:35:04;;;;;;;12.80;8.25;;;;;;;16.37;28.41;100213.44;5080664;28;20083;-80
2022/03/23 12:37:37;;;;;;;14.35;7.80;;;;;;;16.50;28.38;100212.69;5103501;28;20498;-80
2022/03/23 12:40:09;;;;;;;14.48;8.57;;;;;;;16.63;28.14;100218.28;5100344;28;20048;-80
2022/03/23 12:42:42;;;;;;;14.13;7.07;;;;;;;16.68;27.76;100191.09;5092155;28;20048;-80
2022/03/23 12:45:14;;;;;;;13.23;8.10;;;;;;;16.94;28.18;100215.19;5090046;28;20690;-81
2022/03/23 12:47:52;;;;;;;17.38;8.88;;;;;;;16.95;28.63;100196.78;5093691;28;20051;-80
2022/03/23 12:58:57;;;;;;;15.38;7.25;;;;;;;17.09;23.91;100217.81;5047690;28;20511;-81
2022/03/23 13:01:30;;;;;;;14.18;7.32;;;;;;;17.25;23.36;100202.91;5090531;28;20055;-80
2022/03/23 13:03:57;;;;;;;18.80;7.75;;;;;;;17.40;24.08;100205.50;5091670;28;20079;-80
2022/03/23 13:06:36;;;;;;;11.02;6.75;;;;;;;17.41;23.39;100184.38;5092115;28;20051;-80
2022/03/23 13:09:04;;;;;;;8.82;6.75;;;;;;;17.43;23.14;100190.50;5092486;28;20052;-81
2022/03/23 13:11:32;;;;;;;9.38;6.57;;;;;;;17.53;24.49;100171.72;5076125;28;20051;-80
2022/03/23 13:14:00;;;;;;;10.32;6.00;;;;;;;17.69;22.92;100185.09;5091714;28;20456;-80
2022/03/23 13:16:28;;;;;;;12.20;7.07;;;;;;;17.54;22.73;100169.81;5073758;28;20060;-81
2022/03/23 13:18:57;;;;;;;10.48;6.60;;;;;;;17.47;23.17;100175.31;5099332;28;20060;-81
2022/03/23 13:21:28;;;;;;;10.95;6.55;;;;;;;17.30;22.94;100159.16;5091795;28;20040;-80
2022/03/23 13:24:04;;;;;;;11.07;5.97;;;;;;;17.56;22.45;100173.22;5095336;28;20062;-80
2022/03/23 13:26:35;;;;;;;11.05;6.97;;;;;;;17.55;22.52;100168.78;5083639;28;20127;-80
2022/03/23 13:29:06;;;;;;;9.48;6.50;;;;;;;17.75;23.68;100168.81;5095306;28;20052;-79
2022/03/23 13:31:35;;;;;;;10.65;6.85;;;;;;;17.99;23.00;100165.53;5081169;28;20117;-80
2022/03/23 13:34:04;;;;;;;14.73;6.47;;;;;;;17.95;23.51;100166.16;5074877;28;20052;-80
2022/03/23 13:36:34;;;;;;;11.77;6.28;;;;;;;17.94;22.37;100154.28;5091483;28;20131;-80
2022/03/23 13:39:04;;;;;;;7.65;4.78;;;;;;;17.99;21.72;100145.41;5095716;28;20043;-80
2022/03/23 13:44:54;;;;;;;9.20;6.82;;;;;;;18.15;21.52;100158.75;5087146;28;20137;-79
2022/03/23 13:47:05;;;;;;;11.15;6.63;;;;;;;17.81;22.30;100144.09;5094815;28;20073;-80
2022/03/23 13:49:32;;;;;;;9.82;6.43;;;;;;;18.07;21.54;100152.66;5095892;28;20487;-80
2022/03/23 13:52:01;;;;;;;8.52;6.97;;;;;;;18.08;22.41;100152.44;5075235;28;20173;-80
2022/03/23 13:54:28;;;;;;;10.90;6.70;;;;;;;18.00;21.97;100120.44;5094317;28;20130;-80
2022/03/23 13:56:56;;;;;;;8.98;6.13;;;;;;;18.01;22.41;100155.16;5079307;28;20048;-80
2022/03/23 13:59:22;;;;;;;10.20;6.47;;;;;;;18.13;24.94;100130.63;5075209;28;20048;-80
2022/03/23 14:01:52;;;;;;;8.80;6.50;;;;;;;18.16;22.20;100126.63;5091406;28;20479;-80
2022/03/23 14:04:20;;;;;;;12.15;7.10;;;;;;;18.31;21.21;100142.91;5105032;28;20047;-79
2022/03/23 14:06:48;;;;;;;10.13;6.28;;;;;;;18.26;21.58;100134.44;5097105;28;20472;-80
2022/03/23 14:09:19;;;;;;;13.38;6.80;;;;;;;18.20;21.58;100130.63;5087909;28;20047;-80
2022/03/23 14:11:51;;;;;;;13.15;6.35;;;;;;;18.29;21.75;100137.63;5091449;28;20055;-80
2022/03/23 14:14:21;;;;;;;11.65;6.70;;;;;;;18.47;21.65;100120.47;5094590;28;20105;-80
2022/03/23 14:16:59;;;;;;;9.10;6.38;;;;;;;18.46;22.56;100124.28;5079444;28;20095;-80
2022/03/23 14:19:28;;;;;;;10.40;6.25;;;;;;;18.46;21.96;100121.50;5074329;28;20098;-80
2022/03/23 14:21:55;;;;;;;10.73;6.67;;;;;;;18.34;22.12;100118.56;5090034;28;20048;-80
2022/03/23 14:24:22;;;;;;;10.35;6.63;;;;;;;18.50;21.32;100120.03;5093654;28;20058;-80
2022/03/23 14:26:48;;;;;;;9.18;6.40;;;;;;;18.35;22.17;100116.63;5089803;28;20070;-80
2022/03/23 14:29:21;;;;;;;10.25;6.78;;;;;;;18.38;21.74;100114.31;5094365;28;20540;-80
2022/03/23 14:31:48;;;;;;;12.68;7.78;;;;;;;18.46;22.03;100118.75;5094650;28;20052;-80
2022/03/23 14:34:15;;;;;;;10.10;6.65;;;;;;;18.48;22.19;100115.78;5093681;28;20079;-80
2022/03/23 14:36:42;;;;;;;14.98;6.20;;;;;;;18.50;22.01;100106.28;5091874;28;20059;-80
2022/03/23 14:39:19;;;;;;;11.15;6.20;;;;;;;18.39;21.86;100096.72;5094303;28;20051;-80
2022/03/23 14:41:55;;;;;;;10.95;6.10;;;;;;;18.34;21.07;100091.03;5082022;28;20044;-80
2022/03/23 14:44:35;;;;;;;13.65;6.28;;;;;;;18.11;21.76;100099.72;5073519;28;20079;-80
2022/03/23 14:47:02;;;;;;;7.80;5.97;;;;;;;18.22;22.40;100107.34;5087770;28;20055;-80
2022/03/23 14:49:35;;;;;;;11.32;5.93;;;;;;;18.41;21.40;100088.25;5094031;28;20093;-80
2022/03/23 14:52:01;;;;;;;10.18;5.80;;;;;;;18.22;21.82;100084.47;5085036;28;20044;-80
2022/03/23 14:54:28;;;;;;;15.68;6.20;;;;;;;18.37;20.30;100095.28;5093794;28;20787;-80
2022/03/23 14:56:54;;;;;;;8.13;6.13;;;;;;;18.25;21.11;100080.47;5082217;28;20048;-80
2022/03/23 14:59:21;;;;;;;14.43;6.30;;;;;;;18.56;20.54;100091.63;5073707;28;20052;-80
2022/03/23 15:01:56;;;;;;;8.98;5.47;;;;;;;18.49;20.70;100073.44;5081057;28;20035;-80
2022/03/23 15:04:23;;;;;;;12.13;6.03;;;;;;;18.17;21.25;100065.84;5113701;28;20047;-80
2022/03/23 15:15:01;;;;;;;11.07;6.93;;;;;;;18.44;20.10;100070.47;5073463;28;20060;-80
2022/03/23 15:17:29;;;;;;;7.68;5.88;;;;;;;18.46;20.56;100058.19;5073411;28;20057;-79
2022/03/23 15:19:56;;;;;;;10.13;5.25;;;;;;;18.28;20.39;100069.88;5082508;28;20054;-79
2022/03/23 15:22:23;;;;;;;11.07;6.10;;;;;;;18.48;20.05;100071.75;5092627;28;20058;-79
2022/03/23 15:24:49;;;;;;;7.30;6.13;;;;;;;18.48;20.17;100058.81;5084670;28;20054;-79
2022/03/23 15:27:16;;;;;;;8.63;5.22;;;;;;;18.47;20.27;100051.63;5073127;28;20056;-81
2022/03/23 15:29:43;;;;;;;10.38;5.85;;;;;;;18.50;20.26;100072.38;5079697;28;20127;-79
2022/03/23 15:32:10;;;;;;;11.80;5.63;;;;;;;18.35;20.81;100062.44;5090900;28;20055;-79
2022/03/23 15:34:38;;;;;;;8.07;5.60;;;;;;;18.29;21.28;100051.44;5087512;28;20055;-80
2022/03/23 15:37:06;;;;;;;8.43;5.82;;;;;;;18.44;20.48;100045.69;5082465;28;20066;-79
2022/03/23 15:39:32;;;;;;;10.55;5.85;;;;;;;18.49;20.83;100051.41;5088146;28;20040;-80
2022/03/23 15:41:59;;;;;;;16.20;6.97;;;;;;;18.16;20.37;100046.81;5104568;28;20058;-79
2022/03/23 15:44:27;;;;;;;7.28;5.22;;;;;;;18.04;21.16;100055.69;5107110;28;20063;-80
2022/03/23 15:46:54;;;;;;;8.98;5.95;;;;;;;18.08;19.92;100044.25;5105344;28;20048;-79
2022/03/23 15:49:21;;;;;;;8.18;5.75;;;;;;;18.06;20.44;100046.38;5097230;28;20059;-79
2022/03/23 15:51:50;;;;;;;11.68;6.18;;;;;;;18.28;20.28;100045.09;5090294;28;20130;-79
2022/03/23 15:54:16;;;;;;;17.98;6.35;;;;;;;18.17;20.71;100052.09;5092002;28;20403;-79
2022/03/23 15:56:43;;;;;;;8.77;5.60;;;;;;;18.16;19.77;100041.31;5072730;28;20048;-79
2022/03/23 15:59:10;;;;;;;7.63;5.90;;;;;;;18.12;20.41;100054.63;5072976;28;20053;-80
2022/03/23 16:01:37;;;;;;;11.85;5.30;;;;;;;18.32;20.54;100054.63;5091658;28;20127;-80
2022/03/23 16:04:04;;;;;;;7.07;5.50;;;;;;;18.08;20.09;100049.75;5092160;28;20043;-80
2022/03/23 16:06:33;;;;;;;10.20;6.20;;;;;;;18.06;21.00;100049.13;5089806;28;20047;-80
2022/03/23 16:09:01;;;;;;;8.30;5.50;;;;;;;17.72;20.75;100046.34;5093014;28;20062;-80
2022/03/23 16:11:27;;;;;;;11.88;5.60;;;;;;;17.75;21.23;100058.81;5075494;28;20048;-80
2022/03/23 16:13:57;;;;;;;8.30;5.93;;;;;;;17.51;21.46;100034.47;5071953;28;20135;-80
2022/03/23 16:16:24;;;;;;;8.25;5.50;;;;;;;17.44;20.97;100036.38;5088013;28;20087;-80
2022/03/23 16:18:55;;;;;;;11.82;5.55;;;;;;;17.44;21.15;100047.38;5092604;28;20090;-80
2022/03/23 16:21:22;;;;;;;7.68;5.35;;;;;;;17.31;21.14;100050.06;5086859;28;20075;-80
2022/03/23 16:23:49;;;;;;;8.00;5.30;;;;;;;17.28;21.62;100059.59;5091906;28;20127;-80
2022/03/23 16:26:18;;;;;;;10.70;5.65;;;;;;;17.01;22.39;100052.31;5092218;28;20451;-80
2022/03/23 16:28:44;;;;;;;6.40;5.00;;;;;;;16.94;22.09;100068.78;5090211;28;20052;-81
2022/03/23 16:31:12;;;;;;;12.77;5.07;;;;;;;16.74;21.68;100050.28;5093771;28;20048;-82
2022/03/23 16:33:39;;;;;;;9.85;5.45;;;;;;;16.73;21.57;100054.06;5076130;28;20102;-81
2022/03/23 16:36:07;;;;;;;11.40;5.95;;;;;;;16.56;21.98;100056.31;5076440;28;20075;-81
2022/03/23 16:38:34;;;;;;;8.05;5.53;;;;;;;16.54;22.06;100060.28;5092724;28;20067;-81
2022/03/23 16:43:42;;;;;;;8.57;5.30;;;;;;;16.37;22.47;100038.66;5091300;28;20047;-81
2022/03/23 16:46:08;;;;;;;9.95;4.75;;;;;;;16.39;22.92;100063.16;5084064;28;20495;-81
2022/03/23 16:48:35;;;;;;;7.15;5.28;;;;;;;16.36;22.24;100061.66;5092220;28;20047;-81
2022/03/23 16:51:02;;;;;;;8.27;5.40;;;;;;;16.15;22.83;100053.50;5082382;28;20099;-81
2022/03/23 16:53:28;;;;;;;7.10;4.90;;;;;;;16.09;23.48;100052.38;5087056;28;20126;-81
2022/03/23 16:55:55;;;;;;;10.65;5.35;;;;;;;16.08;23.72;100050.72;5095834;28;20486;-81
2022/03/23 16:58:21;;;;;;;8.63;5.18;;;;;;;15.98;23.95;100055.69;5090916;28;20071;-81
2022/03/23 17:00:49;;;;;;;7.90;4.80;;;;;;;15.86;24.40;100063.59;5096120;28;20067;-81
2022/03/23 17:14:23;;;;;;;13.63;5.50;;;;;;;15.44;23.61;100052.41;5087585;28;20098;-82
2022/03/23 17:16:56;;;;;;;13.68;5.47;;;;;;;15.37;23.65;100054.22;5074436;28;20123;-83
2022/03/23 17:19:23;;;;;;;8.85;5.32;;;;;;;15.19;23.72;100047.31;5075081;28;20060;-83
2022/03/23 17:21:50;;;;;;;8.98;5.38;;;;;;;15.21;23.96;100063.56;5085503;28;20119;-82
2022/03/23 17:24:16;;;;;;;7.13;4.75;;;;;;;15.03;24.30;100061.22;5093389;28;20052;-82
2022/03/23 17:26:43;;;;;;;11.65;5.30;;;;;;;14.96;24.27;100061.13;5091265;28;20506;-83
2022/03/23 17:29:10;;;;;;;13.32;5.63;;;;;;;14.94;24.09;100055.00;5087542;27;20048;-83
2022/03/23 17:31:36;;;;;;;7.90;5.38;;;;;;;14.85;24.53;100061.63;5093793;27;20563;-82
2022/03/23 17:34:05;;;;;;;9.05;5.32;;;;;;;14.68;25.20;100056.38;5087573;28;20079;-82
2022/03/23 17:36:32;;;;;;;8.40;5.35;;;;;;;14.51;25.51;100058.44;5095825;28;20495;-83
2022/03/23 17:38:59;;;;;;;11.82;5.32;;;;;;;14.18;26.88;100062.53;5085232;28;20513;-82
2022/03/23 17:41:25;;;;;;;11.00;6.65;;;;;;;13.93;28.18;100071.84;5073885;28;20059;-83
2022/03/23 17:43:54;;;;;;;14.85;5.97;;;;;;;13.86;28.65;100059.94;5077057;28;20148;-83
2022/03/23 17:46:21;;;;;;;13.88;5.53;;;;;;;13.81;29.59;100068.69;5093270;28;20068;-83
2022/03/23 17:48:47;;;;;;;7.10;4.75;;;;;;;13.44;30.13;100050.38;5091603;28;20376;-83
2022/03/23 17:51:16;;;;;;;13.25;5.95;;;;;;;13.30;30.92;100078.44;5089149;28;20404;-83
2022/03/23 17:53:43;;;;;;;10.65;5.75;;;;;;;13.04;31.36;100077.72;5092268;28;20139;-83
2022/03/23 17:56:10;;;;;;;9.85;5.80;;;;;;;12.74;31.24;100054.84;5086144;28;20050;-83
2022/03/23 17:58:36;;;;;;;9.55;5.97;;;;;;;12.68;31.86;100086.41;5086564;28;20051;-83
2022/03/23 18:01:04;;;;;;;9.98;5.45;;;;;;;12.53;32.35;100083.56;5092506;28;20060;-83
2022/03/23 18:03:31;;;;;;;13.50;5.45;;;;;;;12.34;32.63;100084.78;5091365;28;20100;-83
2022/03/23 18:05:58;;;;;;;8.55;5.68;;;;;;;12.22;33.38;100086.19;5085947;28;20040;-83
2022/03/23 18:08:29;;;;;;;10.30;5.97;;;;;;;11.90;33.11;100087.91;5085681;28;20052;-83
2022/03/23 18:10:56;;;;;;;11.00;6.00;;;;;;;11.94;33.45;100088.44;5090712;28;20673;-83
2022/03/23 18:13:24;;;;;;;11.90;6.03;;;;;;;11.73;33.98;100078.88;5090996;28;20579;-80
2022/03/23 18:15:51;;;;;;;11.32;7.15;;;;;;;11.60;34.13;100101.16;5088686;28;20572;-83
2022/03/23 18:18:18;;;;;;;16.42;7.00;;;;;;;11.40;34.74;100080.75;5072033;28;20053;-83
2022/03/23 18:20:47;;;;;;;12.95;7.07;;;;;;;11.47;34.29;100085.34;5074147;28;20048;-83
2022/03/23 18:23:22;;;;;;;11.82;6.65;;;;;;;11.45;35.05;100097.41;5092332;28;20155;-82
2022/03/23 18:25:50;;;;;;;16.67;10.73;;;;;;;11.24;34.75;100087.00;5092904;28;20457;-83
2022/03/23 18:28:17;;;;;;;12.98;8.68;;;;;;;11.04;35.42;100083.72;5091938;28;20058;-83
2022/03/23 18:30:48;;;;;;;12.00;7.30;;;;;;;10.86;36.42;100079.22;5093034;28;20062;-84
2022/03/23 18:33:15;;;;;;;12.63;6.72;;;;;;;10.91;37.14;100111.38;5072083;28;20178;-84
2022/03/23 18:35:41;;;;;;;11.02;6.82;;;;;;;10.69;38.12;100096.47;5073008;28;20072;-83
2022/03/23 18:38:08;;;;;;;16.38;7.07;;;;;;;10.53;38.64;100083.69;5088940;28;20051;-83
2022/03/23 18:40:35;;;;;;;13.77;7.50;;;;;;;10.57;39.75;100112.25;5088742;28;20102;-83
2022/03/23 18:43:03;;;;;;;16.73;9.02;;;;;;;10.12;40.31;100084.25;5091732;28;20062;-84
2022/03/23 18:45:32;;;;;;;14.05;7.43;;;;;;;10.13;40.60;100104.13;5091202;28;20117;-84
2022/03/23 18:47:59;;;;;;;20.80;7.28;;;;;;;9.92;40.52;100108.03;5092953;28;20135;-84
2022/03/23 18:50:26;;;;;;;15.10;6.57;;;;;;;9.85;41.26;100110.53;5077230;28;20052;-84
2022/03/23 18:52:53;;;;;;;16.67;7.05;;;;;;;9.68;42.25;100112.25;5074906;28;20048;-84
2022/03/23 18:55:19;;;;;;;13.65;6.82;;;;;;;9.70;41.73;100115.66;5074840;28;20048;-81
2022/03/23 18:57:51;;;;;;;15.73;7.05;;;;;;;9.64;40.55;100107.31;5098642;28;20051;-85
2022/03/23 19:00:20;;;;;;;13.95;6.57;;;;;;;9.60;41.75;100104.03;5092232;28;20131;-84
2022/03/23 19:02:47;;;;;;;17.55;7.68;;;;;;;9.72;41.94;100119.06;5077842;28;20051;-84
2022/03/23 19:05:14;;;;;;;14.13;7.65;;;;;;;9.54;42.73;100116.38;5070107;28;20052;-84
2022/03/23 19:07:40;;;;;;;20.20;9.27;;;;;;;9.36;43.42;100113.66;5086843;28;20048;-84
2022/03/23 19:10:08;;;;;;;17.83;8.48;;;;;;;9.16;43.11;100122.94;5089765;28;20117;-84
2022/03/23 19:12:35;;;;;;;16.85;8.57;;;;;;;9.16;43.84;100136.50;5072150;28;20053;-84
2022/03/23 19:15:03;;;;;;;14.50;8.23;;;;;;;9.01;44.47;100128.84;5069077;28;20064;-84
2022/03/23 19:17:31;;;;;;;14.02;6.85;;;;;;;8.82;45.06;100118.09;5088420;28;20522;-84
2022/03/23 19:20:01;;;;;;;14.82;7.32;;;;;;;8.76;44.81;100127.72;5088604;28;20058;-84
2022/03/23 19:22:28;;;;;;;13.65;6.47;;;;;;;8.39;46.14;100120.41;5074618;28;20106;-83
2022/03/23 19:24:54;;;;;;;9.55;6.32;;;;;;;8.22;45.71;100126.56;5107495;28;20047;-83
2022/03/23 19:27:21;;;;;;;12.00;6.38;;;;;;;8.14;45.71;100133.59;5095702;28;20380;-83
2022/03/23 19:29:47;;;;;;;10.18;6.38;;;;;;;7.94;46.92;100118.34;5090322;28;20131;-83
2022/03/23 19:32:14;;;;;;;12.20;6.75;;;;;;;7.84;46.90;100121.06;5087572;28;20063;-84
2022/03/23 19:34:42;;;;;;;14.50;7.90;;;;;;;7.89;47.23;100124.22;5090011;28;20132;-85
2022/03/23 19:37:09;;;;;;;14.52;7.03;;;;;;;8.00;47.39;100146.72;5083792;28;20051;-84
2022/03/23 19:39:36;;;;;;;14.93;6.70;;;;;;;7.97;48.59;100166.81;5109828;28;20079;-84
2022/03/23 19:42:04;;;;;;;14.90;7.28;;;;;;;7.68;47.61;100140.59;5099391;28;20051;-84
